sensor_id;sensor_type;location;lat;lon;timestamp;P1;durP1;ratioP1;P2;durP2;ratioP2
80270;SDS011;69573;45.560;10.200;2023-07-31T00:01:59;3.22;;;2.97;;
80270;SDS011;69573;45.560;10.200;2023-07-31T00:04:25;3.42;;;3.13;;
80270;SDS011;69573;45.560;10.200;2023-07-31T00:06:52;3.40;;;3.10;;
80270;SDS011;69573;45.560;10.200;2023-07-31T00:09:18;3.33;;;2.95;;
80270;SDS011;69573;45.560;10.200;2023-07-31T00:11:45;4.15;;;2.63;;
80270;SDS011;69573;45.560;10.200;2023-07-31T00:14:11;2.85;;;2.63;;
80270;SDS011;69573;45.560;10.200;2023-07-31T00:16:37;2.90;;;2.70;;
80270;SDS011;69573;45.560;10.200;2023-07-31T00:19:04;3.00;;;2.70;;
80270;SDS011;69573;45.560;10.200;2023-07-31T00:21:30;3.15;;;2.78;;
80270;SDS011;69573;45.560;10.200;2023-07-31T00:23:57;3.10;;;2.80;;
80270;SDS011;69573;45.560;10.200;2023-07-31T00:26:24;3.20;;;2.90;;
80270;SDS011;69573;45.560;10.200;2023-07-31T00:28:51;3.75;;;3.42;;
80270;SDS011;69573;45.560;10.200;2023-07-31T00:31:17;3.80;;;3.40;;
80270;SDS011;69573;45.560;10.200;2023-07-31T00:33:44;3.97;;;3.60;;
80270;SDS011;69573;45.560;10.200;2023-07-31T00:36:10;5.60;;;3.60;;
80270;SDS011;69573;45.560;10.200;2023-07-31T00:38:36;4.30;;;4.00;;
80270;SDS011;69573;45.560;10.200;2023-07-31T00:41:03;5.68;;;3.90;;
80270;SDS011;69573;45.560;10.200;2023-07-31T00:43:29;4.38;;;4.00;;
80270;SDS011;69573;45.560;10.200;2023-07-31T00:45:56;4.10;;;3.72;;
80270;SDS011;69573;45.560;10.200;2023-07-31T00:48:22;4.20;;;3.72;;
80270;SDS011;69573;45.560;10.200;2023-07-31T00:50:49;4.03;;;3.72;;
80270;SDS011;69573;45.560;10.200;2023-07-31T00:53:16;4.22;;;3.83;;
80270;SDS011;69573;45.560;10.200;2023-07-31T00:55:42;4.47;;;4.07;;
80270;SDS011;69573;45.560;10.200;2023-07-31T00:58:09;4.05;;;3.65;;
80270;SDS011;69573;45.560;10.200;2023-07-31T01:00:35;3.97;;;3.67;;
80270;SDS011;69573;45.560;10.200;2023-07-31T01:03:01;4.18;;;3.88;;
80270;SDS011;69573;45.560;10.200;2023-07-31T01:10:57;6.63;;;4.38;;
80270;SDS011;69573;45.560;10.200;2023-07-31T01:13:26;4.18;;;3.88;;
80270;SDS011;69573;45.560;10.200;2023-07-31T01:15:53;4.38;;;3.60;;
80270;SDS011;69573;45.560;10.200;2023-07-31T01:18:19;4.07;;;3.78;;
80270;SDS011;69573;45.560;10.200;2023-07-31T01:20:46;8.18;;;4.63;;
80270;SDS011;69573;45.560;10.200;2023-07-31T01:29:01;4.13;;;3.75;;
80270;SDS011;69573;45.560;10.200;2023-07-31T01:31:21;5.07;;;3.80;;
80270;SDS011;69573;45.560;10.200;2023-07-31T01:33:49;4.90;;;3.63;;
80270;SDS011;69573;45.560;10.200;2023-07-31T01:36:16;4.50;;;4.10;;
80270;SDS011;69573;45.560;10.200;2023-07-31T01:38:43;4.53;;;4.10;;
80270;SDS011;69573;45.560;10.200;2023-07-31T01:41:09;4.55;;;4.10;;
80270;SDS011;69573;45.560;10.200;2023-07-31T01:43:36;4.45;;;4.05;;
80270;SDS011;69573;45.560;10.200;2023-07-31T01:46:02;4.88;;;4.40;;
80270;SDS011;69573;45.560;10.200;2023-07-31T01:48:29;4.70;;;4.25;;
80270;SDS011;69573;45.560;10.200;2023-07-31T01:51:00;4.57;;;3.80;;
80270;SDS011;69573;45.560;10.200;2023-07-31T01:53:27;4.38;;;3.97;;
80270;SDS011;69573;45.560;10.200;2023-07-31T01:55:53;4.50;;;4.10;;
80270;SDS011;69573;45.560;10.200;2023-07-31T01:58:20;6.25;;;4.35;;
80270;SDS011;69573;45.560;10.200;2023-07-31T02:00:46;4.32;;;3.90;;
80270;SDS011;69573;45.560;10.200;2023-07-31T02:03:13;4.47;;;4.10;;
80270;SDS011;69573;45.560;10.200;2023-07-31T02:05:48;4.68;;;4.05;;
80270;SDS011;69573;45.560;10.200;2023-07-31T02:08:15;4.10;;;3.70;;
80270;SDS011;69573;45.560;10.200;2023-07-31T02:10:42;5.50;;;4.53;;
80270;SDS011;69573;45.560;10.200;2023-07-31T02:13:08;4.45;;;4.05;;
80270;SDS011;69573;45.560;10.200;2023-07-31T02:15:35;4.40;;;3.95;;
80270;SDS011;69573;45.560;10.200;2023-07-31T02:18:01;4.43;;;3.90;;
80270;SDS011;69573;45.560;10.200;2023-07-31T02:20:28;4.85;;;4.45;;
80270;SDS011;69573;45.560;10.200;2023-07-31T02:22:54;4.75;;;4.35;;
80270;SDS011;69573;45.560;10.200;2023-07-31T02:25:20;5.03;;;4.60;;
80270;SDS011;69573;45.560;10.200;2023-07-31T02:27:46;4.60;;;4.30;;
80270;SDS011;69573;45.560;10.200;2023-07-31T02:30:13;5.28;;;4.78;;
80270;SDS011;69573;45.560;10.200;2023-07-31T02:32:39;4.50;;;4.10;;
80270;SDS011;69573;45.560;10.200;2023-07-31T02:35:06;4.53;;;4.13;;
80270;SDS011;69573;45.560;10.200;2023-07-31T02:37:34;4.65;;;4.35;;
80270;SDS011;69573;45.560;10.200;2023-07-31T02:40:00;4.47;;;4.18;;
80270;SDS011;69573;45.560;10.200;2023-07-31T02:42:27;4.57;;;3.92;;
80270;SDS011;69573;45.560;10.200;2023-07-31T02:44:53;4.82;;;4.28;;
80270;SDS011;69573;45.560;10.200;2023-07-31T02:47:21;4.07;;;3.80;;
80270;SDS011;69573;45.560;10.200;2023-07-31T02:49:47;5.35;;;4.13;;
80270;SDS011;69573;45.560;10.200;2023-07-31T02:52:14;4.90;;;4.30;;
80270;SDS011;69573;45.560;10.200;2023-07-31T02:54:41;5.07;;;4.57;;
80270;SDS011;69573;45.560;10.200;2023-07-31T02:57:07;4.10;;;3.80;;
80270;SDS011;69573;45.560;10.200;2023-07-31T02:59:34;4.35;;;4.05;;
80270;SDS011;69573;45.560;10.200;2023-07-31T03:02:00;5.03;;;4.63;;
80270;SDS011;69573;45.560;10.200;2023-07-31T03:04:26;5.32;;;4.82;;
80270;SDS011;69573;45.560;10.200;2023-07-31T03:06:52;4.32;;;4.03;;
80270;SDS011;69573;45.560;10.200;2023-07-31T03:09:22;5.20;;;4.70;;
80270;SDS011;69573;45.560;10.200;2023-07-31T03:11:49;4.22;;;4.00;;
80270;SDS011;69573;45.560;10.200;2023-07-31T03:14:15;5.00;;;4.60;;
80270;SDS011;69573;45.560;10.200;2023-07-31T03:16:42;5.25;;;4.88;;
80270;SDS011;69573;45.560;10.200;2023-07-31T03:19:08;5.18;;;4.40;;
80270;SDS011;69573;45.560;10.200;2023-07-31T03:21:35;5.10;;;4.70;;
80270;SDS011;69573;45.560;10.200;2023-07-31T03:24:02;5.18;;;4.68;;
80270;SDS011;69573;45.560;10.200;2023-07-31T03:26:30;4.65;;;4.25;;
80270;SDS011;69573;45.560;10.200;2023-07-31T03:28:57;5.60;;;5.20;;
80270;SDS011;69573;45.560;10.200;2023-07-31T03:31:23;4.93;;;4.53;;
80270;SDS011;69573;45.560;10.200;2023-07-31T03:33:50;5.38;;;4.80;;
80270;SDS011;69573;45.560;10.200;2023-07-31T03:36:17;5.35;;;4.85;;
80270;SDS011;69573;45.560;10.200;2023-07-31T03:38:43;5.25;;;4.55;;
80270;SDS011;69573;45.560;10.200;2023-07-31T03:41:10;5.13;;;4.72;;
80270;SDS011;69573;45.560;10.200;2023-07-31T03:43:36;4.30;;;3.97;;
80270;SDS011;69573;45.560;10.200;2023-07-31T03:46:03;4.70;;;4.40;;
80270;SDS011;69573;45.560;10.200;2023-07-31T03:48:32;5.03;;;4.53;;
80270;SDS011;69573;45.560;10.200;2023-07-31T03:50:59;5.88;;;5.35;;
80270;SDS011;69573;45.560;10.200;2023-07-31T03:53:25;4.90;;;4.60;;
80270;SDS011;69573;45.560;10.200;2023-07-31T03:55:51;4.82;;;4.43;;
80270;SDS011;69573;45.560;10.200;2023-07-31T03:58:18;5.65;;;5.25;;
80270;SDS011;69573;45.560;10.200;2023-07-31T04:00:45;5.32;;;4.93;;
80270;SDS011;69573;45.560;10.200;2023-07-31T04:03:11;5.75;;;5.20;;
80270;SDS011;69573;45.560;10.200;2023-07-31T04:05:38;5.45;;;4.95;;
80270;SDS011;69573;45.560;10.200;2023-07-31T04:08:04;5.65;;;5.20;;
80270;SDS011;69573;45.560;10.200;2023-07-31T04:10:31;5.55;;;5.05;;
80270;SDS011;69573;45.560;10.200;2023-07-31T04:12:58;5.80;;;5.30;;
80270;SDS011;69573;45.560;10.200;2023-07-31T04:15:25;5.90;;;5.38;;
80270;SDS011;69573;45.560;10.200;2023-07-31T04:17:51;5.38;;;4.88;;
80270;SDS011;69573;45.560;10.200;2023-07-31T04:20:18;5.57;;;5.07;;
80270;SDS011;69573;45.560;10.200;2023-07-31T04:22:44;5.75;;;5.25;;
80270;SDS011;69573;45.560;10.200;2023-07-31T04:25:10;5.57;;;5.10;;
80270;SDS011;69573;45.560;10.200;2023-07-31T04:27:37;5.30;;;4.90;;
80270;SDS011;69573;45.560;10.200;2023-07-31T04:30:04;5.60;;;4.80;;
80270;SDS011;69573;45.560;10.200;2023-07-31T04:32:30;5.00;;;4.63;;
80270;SDS011;69573;45.560;10.200;2023-07-31T04:34:57;5.70;;;5.20;;
80270;SDS011;69573;45.560;10.200;2023-07-31T04:37:23;4.57;;;4.28;;
80270;SDS011;69573;45.560;10.200;2023-07-31T04:39:50;5.70;;;5.20;;
80270;SDS011;69573;45.560;10.200;2023-07-31T04:42:16;5.18;;;4.88;;
80270;SDS011;69573;45.560;10.200;2023-07-31T04:44:42;5.97;;;5.05;;
80270;SDS011;69573;45.560;10.200;2023-07-31T04:47:09;6.15;;;5.40;;
80270;SDS011;69573;45.560;10.200;2023-07-31T04:49:35;5.95;;;5.45;;
80270;SDS011;69573;45.560;10.200;2023-07-31T04:52:01;6.85;;;5.50;;
80270;SDS011;69573;45.560;10.200;2023-07-31T04:54:28;5.93;;;5.38;;
80270;SDS011;69573;45.560;10.200;2023-07-31T04:56:54;6.63;;;5.68;;
80270;SDS011;69573;45.560;10.200;2023-07-31T04:59:21;6.82;;;5.32;;
80270;SDS011;69573;45.560;10.200;2023-07-31T05:01:47;6.03;;;5.53;;
80270;SDS011;69573;45.560;10.200;2023-07-31T05:04:14;5.93;;;5.43;;
80270;SDS011;69573;45.560;10.200;2023-07-31T05:06:40;8.15;;;5.68;;
80270;SDS011;69573;45.560;10.200;2023-07-31T05:09:06;6.03;;;5.50;;
80270;SDS011;69573;45.560;10.200;2023-07-31T05:11:34;10.18;;;5.63;;
80270;SDS011;69573;45.560;10.200;2023-07-31T05:14:00;6.03;;;5.43;;
80270;SDS011;69573;45.560;10.200;2023-07-31T05:16:27;6.15;;;4.95;;
80270;SDS011;69573;45.560;10.200;2023-07-31T05:18:53;7.20;;;5.97;;
80270;SDS011;69573;45.560;10.200;2023-07-31T05:21:20;6.00;;;5.40;;
80270;SDS011;69573;45.560;10.200;2023-07-31T05:23:47;6.43;;;5.78;;
80270;SDS011;69573;45.560;10.200;2023-07-31T05:26:13;5.80;;;5.40;;
80270;SDS011;69573;45.560;10.200;2023-07-31T05:28:40;6.10;;;5.40;;
80270;SDS011;69573;45.560;10.200;2023-07-31T05:31:06;5.18;;;4.68;;
80270;SDS011;69573;45.560;10.200;2023-07-31T05:33:33;5.97;;;5.47;;
80270;SDS011;69573;45.560;10.200;2023-07-31T05:35:59;5.75;;;5.25;;
80270;SDS011;69573;45.560;10.200;2023-07-31T05:38:26;7.68;;;5.68;;
80270;SDS011;69573;45.560;10.200;2023-07-31T05:40:52;10.05;;;5.45;;
80270;SDS011;69573;45.560;10.200;2023-07-31T05:43:19;6.70;;;5.25;;
80270;SDS011;69573;45.560;10.200;2023-07-31T05:45:45;6.00;;;5.32;;
80270;SDS011;69573;45.560;10.200;2023-07-31T05:48:11;6.72;;;4.82;;
80270;SDS011;69573;45.560;10.200;2023-07-31T05:50:38;6.85;;;5.75;;
80270;SDS011;69573;45.560;10.200;2023-07-31T05:53:05;6.35;;;5.63;;
80270;SDS011;69573;45.560;10.200;2023-07-31T05:55:32;6.22;;;5.63;;
80270;SDS011;69573;45.560;10.200;2023-07-31T05:57:58;6.20;;;5.63;;
80270;SDS011;69573;45.560;10.200;2023-07-31T06:00:25;10.27;;;5.97;;
80270;SDS011;69573;45.560;10.200;2023-07-31T06:02:51;6.18;;;5.57;;
80270;SDS011;69573;45.560;10.200;2023-07-31T06:05:18;6.20;;;5.60;;
80270;SDS011;69573;45.560;10.200;2023-07-31T06:07:44;6.03;;;5.43;;
80270;SDS011;69573;45.560;10.200;2023-07-31T06:10:10;6.93;;;5.60;;
80270;SDS011;69573;45.560;10.200;2023-07-31T06:12:36;5.70;;;5.18;;
80270;SDS011;69573;45.560;10.200;2023-07-31T06:15:03;6.70;;;5.68;;
80270;SDS011;69573;45.560;10.200;2023-07-31T06:17:34;6.03;;;4.90;;
80270;SDS011;69573;45.560;10.200;2023-07-31T06:20:01;5.38;;;4.88;;
80270;SDS011;69573;45.560;10.200;2023-07-31T06:22:30;6.00;;;5.40;;
80270;SDS011;69573;45.560;10.200;2023-07-31T06:24:56;7.97;;;5.40;;
80270;SDS011;69573;45.560;10.200;2023-07-31T06:27:23;6.13;;;5.55;;
80270;SDS011;69573;45.560;10.200;2023-07-31T06:29:50;6.47;;;5.95;;
80270;SDS011;69573;45.560;10.200;2023-07-31T06:32:17;6.32;;;5.40;;
80270;SDS011;69573;45.560;10.200;2023-07-31T06:34:43;6.57;;;5.95;;
80270;SDS011;69573;45.560;10.200;2023-07-31T06:37:09;5.65;;;5.22;;
80270;SDS011;69573;45.560;10.200;2023-07-31T06:39:35;6.00;;;5.40;;
80270;SDS011;69573;45.560;10.200;2023-07-31T06:42:03;5.88;;;5.43;;
80270;SDS011;69573;45.560;10.200;2023-07-31T06:44:31;6.30;;;5.70;;
80270;SDS011;69573;45.560;10.200;2023-07-31T06:46:57;6.13;;;5.60;;
80270;SDS011;69573;45.560;10.200;2023-07-31T06:49:23;7.95;;;5.47;;
80270;SDS011;69573;45.560;10.200;2023-07-31T06:51:50;5.85;;;5.18;;
80270;SDS011;69573;45.560;10.200;2023-07-31T06:54:16;6.13;;;5.53;;
80270;SDS011;69573;45.560;10.200;2023-07-31T06:56:43;6.15;;;5.63;;
80270;SDS011;69573;45.560;10.200;2023-07-31T06:59:09;7.80;;;5.40;;
80270;SDS011;69573;45.560;10.200;2023-07-31T07:01:36;7.05;;;5.88;;
80270;SDS011;69573;45.560;10.200;2023-07-31T07:04:02;5.65;;;5.13;;
80270;SDS011;69573;45.560;10.200;2023-07-31T07:06:28;8.35;;;6.13;;
80270;SDS011;69573;45.560;10.200;2023-07-31T07:08:55;6.30;;;5.70;;
80270;SDS011;69573;45.560;10.200;2023-07-31T07:11:21;7.45;;;5.93;;
80270;SDS011;69573;45.560;10.200;2023-07-31T07:13:47;5.65;;;5.13;;
80270;SDS011;69573;45.560;10.200;2023-07-31T07:16:14;8.25;;;5.30;;
80270;SDS011;69573;45.560;10.200;2023-07-31T07:18:40;7.85;;;5.47;;
80270;SDS011;69573;45.560;10.200;2023-07-31T07:21:06;11.25;;;5.82;;
80270;SDS011;69573;45.560;10.200;2023-07-31T07:23:33;11.95;;;5.18;;
80270;SDS011;69573;45.560;10.200;2023-07-31T07:26:00;7.47;;;5.10;;
80270;SDS011;69573;45.560;10.200;2023-07-31T07:28:27;6.72;;;5.22;;
80270;SDS011;69573;45.560;10.200;2023-07-31T07:30:54;6.95;;;5.22;;
80270;SDS011;69573;45.560;10.200;2023-07-31T07:33:20;5.53;;;5.03;;
80270;SDS011;69573;45.560;10.200;2023-07-31T07:35:47;5.82;;;5.38;;
80270;SDS011;69573;45.560;10.200;2023-07-31T07:38:14;6.20;;;5.15;;
80270;SDS011;69573;45.560;10.200;2023-07-31T07:40:40;8.02;;;5.30;;
80270;SDS011;69573;45.560;10.200;2023-07-31T07:43:06;5.47;;;4.97;;
80270;SDS011;69573;45.560;10.200;2023-07-31T07:45:33;5.88;;;5.15;;
80270;SDS011;69573;45.560;10.200;2023-07-31T07:47:59;9.80;;;5.78;;
80270;SDS011;69573;45.560;10.200;2023-07-31T07:50:26;6.90;;;5.57;;
80270;SDS011;69573;45.560;10.200;2023-07-31T07:52:52;6.95;;;5.32;;
80270;SDS011;69573;45.560;10.200;2023-07-31T07:55:18;5.38;;;4.72;;
80270;SDS011;69573;45.560;10.200;2023-07-31T07:57:44;8.30;;;5.22;;
80270;SDS011;69573;45.560;10.200;2023-07-31T08:00:12;5.22;;;4.72;;
80270;SDS011;69573;45.560;10.200;2023-07-31T08:02:39;9.52;;;5.15;;
80270;SDS011;69573;45.560;10.200;2023-07-31T08:05:05;5.03;;;4.63;;
80270;SDS011;69573;45.560;10.200;2023-07-31T08:07:33;5.35;;;4.85;;
80270;SDS011;69573;45.560;10.200;2023-07-31T08:09:59;6.00;;;5.10;;
80270;SDS011;69573;45.560;10.200;2023-07-31T08:12:26;5.25;;;4.82;;
80270;SDS011;69573;45.560;10.200;2023-07-31T08:14:52;5.03;;;4.50;;
80270;SDS011;69573;45.560;10.200;2023-07-31T08:17:18;4.68;;;4.28;;
80270;SDS011;69573;45.560;10.200;2023-07-31T08:19:45;6.13;;;5.05;;
80270;SDS011;69573;45.560;10.200;2023-07-31T08:22:11;5.40;;;4.50;;
80270;SDS011;69573;45.560;10.200;2023-07-31T08:24:37;6.90;;;4.68;;
80270;SDS011;69573;45.560;10.200;2023-07-31T08:27:05;5.43;;;3.35;;
80270;SDS011;69573;45.560;10.200;2023-07-31T08:29:31;3.25;;;2.90;;
80270;SDS011;69573;45.560;10.200;2023-07-31T08:31:58;2.25;;;2.05;;
80270;SDS011;69573;45.560;10.200;2023-07-31T08:34:25;5.32;;;2.05;;
80270;SDS011;69573;45.560;10.200;2023-07-31T08:36:51;3.58;;;2.15;;
80270;SDS011;69573;45.560;10.200;2023-07-31T08:39:18;4.75;;;2.70;;
80270;SDS011;69573;45.560;10.200;2023-07-31T08:41:45;2.75;;;2.28;;
80270;SDS011;69573;45.560;10.200;2023-07-31T08:44:31;4.10;;;2.50;;
80270;SDS011;69573;45.560;10.200;2023-07-31T08:46:58;3.47;;;2.67;;
80270;SDS011;69573;45.560;10.200;2023-07-31T08:49:24;2.13;;;1.88;;
80270;SDS011;69573;45.560;10.200;2023-07-31T08:51:51;2.78;;;2.17;;
80270;SDS011;69573;45.560;10.200;2023-07-31T08:54:18;2.30;;;2.10;;
80270;SDS011;69573;45.560;10.200;2023-07-31T08:56:44;1.90;;;1.80;;
80270;SDS011;69573;45.560;10.200;2023-07-31T08:59:11;2.15;;;2.05;;
80270;SDS011;69573;45.560;10.200;2023-07-31T09:01:39;2.95;;;1.90;;
80270;SDS011;69573;45.560;10.200;2023-07-31T09:04:07;2.38;;;1.95;;
80270;SDS011;69573;45.560;10.200;2023-07-31T09:06:35;3.03;;;2.00;;
80270;SDS011;69573;45.560;10.200;2023-07-31T09:09:02;1.80;;;1.70;;
80270;SDS011;69573;45.560;10.200;2023-07-31T09:11:28;2.10;;;1.60;;
80270;SDS011;69573;45.560;10.200;2023-07-31T09:13:56;1.77;;;1.67;;
80270;SDS011;69573;45.560;10.200;2023-07-31T09:16:27;1.90;;;1.70;;
80270;SDS011;69573;45.560;10.200;2023-07-31T09:18:56;1.67;;;1.38;;
80270;SDS011;69573;45.560;10.200;2023-07-31T09:21:22;2.58;;;1.50;;
80270;SDS011;69573;45.560;10.200;2023-07-31T09:23:49;1.70;;;1.60;;
80270;SDS011;69573;45.560;10.200;2023-07-31T09:28:56;2.05;;;1.80;;
80270;SDS011;69573;45.560;10.200;2023-07-31T09:31:38;4.50;;;1.50;;
80270;SDS011;69573;45.560;10.200;2023-07-31T09:34:05;1.48;;;1.38;;
80270;SDS011;69573;45.560;10.200;2023-07-31T09:36:31;2.55;;;1.60;;
80270;SDS011;69573;45.560;10.200;2023-07-31T09:39:03;5.50;;;1.75;;
80270;SDS011;69573;45.560;10.200;2023-07-31T09:41:30;2.28;;;1.70;;
80270;SDS011;69573;45.560;10.200;2023-07-31T09:43:56;2.05;;;1.70;;
80270;SDS011;69573;45.560;10.200;2023-07-31T09:46:22;2.65;;;1.70;;
80270;SDS011;69573;45.560;10.200;2023-07-31T09:48:52;6.53;;;2.00;;
80270;SDS011;69573;45.560;10.200;2023-07-31T09:51:26;1.52;;;1.42;;
80270;SDS011;69573;45.560;10.200;2023-07-31T09:53:52;1.50;;;1.40;;
80270;SDS011;69573;45.560;10.200;2023-07-31T09:56:18;1.42;;;1.33;;
80270;SDS011;69573;45.560;10.200;2023-07-31T09:58:47;2.33;;;1.83;;
80270;SDS011;69573;45.560;10.200;2023-07-31T10:01:13;1.98;;;1.80;;
80270;SDS011;69573;45.560;10.200;2023-07-31T10:03:43;3.17;;;1.75;;
80270;SDS011;69573;45.560;10.200;2023-07-31T10:06:11;3.20;;;1.60;;
80270;SDS011;69573;45.560;10.200;2023-07-31T10:08:40;1.50;;;1.40;;
80270;SDS011;69573;45.560;10.200;2023-07-31T10:11:07;1.70;;;1.60;;
80270;SDS011;69573;45.560;10.200;2023-07-31T10:13:35;2.30;;;1.58;;
80270;SDS011;69573;45.560;10.200;2023-07-31T10:16:01;1.90;;;1.67;;
80270;SDS011;69573;45.560;10.200;2023-07-31T10:18:28;2.50;;;1.70;;
80270;SDS011;69573;45.560;10.200;2023-07-31T10:20:54;1.80;;;1.70;;
80270;SDS011;69573;45.560;10.200;2023-07-31T10:23:21;1.95;;;1.85;;
80270;SDS011;69573;45.560;10.200;2023-07-31T10:25:48;1.92;;;1.83;;
80270;SDS011;69573;45.560;10.200;2023-07-31T10:28:15;2.25;;;2.00;;
80270;SDS011;69573;45.560;10.200;2023-07-31T10:30:42;2.83;;;2.10;;
80270;SDS011;69573;45.560;10.200;2023-07-31T10:33:09;1.80;;;1.70;;
80270;SDS011;69573;45.560;10.200;2023-07-31T10:35:35;1.80;;;1.70;;
80270;SDS011;69573;45.560;10.200;2023-07-31T10:38:14;2.08;;;1.98;;
80270;SDS011;69573;45.560;10.200;2023-07-31T10:40:40;3.42;;;1.92;;
80270;SDS011;69573;45.560;10.200;2023-07-31T10:43:07;2.05;;;1.63;;
80270;SDS011;69573;45.560;10.200;2023-07-31T10:48:03;1.88;;;1.67;;
80270;SDS011;69573;45.560;10.200;2023-07-31T10:50:30;1.88;;;1.77;;
80270;SDS011;69573;45.560;10.200;2023-07-31T10:53:00;1.73;;;1.63;;
80270;SDS011;69573;45.560;10.200;2023-07-31T10:55:42;3.33;;;2.10;;
80270;SDS011;69573;45.560;10.200;2023-07-31T10:58:11;2.75;;;2.08;;
80270;SDS011;69573;45.560;10.200;2023-07-31T11:00:39;2.15;;;2.05;;
80270;SDS011;69573;45.560;10.200;2023-07-31T11:03:09;2.55;;;2.00;;
80270;SDS011;69573;45.560;10.200;2023-07-31T11:08:34;3.92;;;2.03;;
80270;SDS011;69573;45.560;10.200;2023-07-31T11:13:27;2.45;;;2.25;;
80270;SDS011;69573;45.560;10.200;2023-07-31T11:15:54;2.50;;;2.30;;
80270;SDS011;69573;45.560;10.200;2023-07-31T11:18:21;2.33;;;2.20;;
80270;SDS011;69573;45.560;10.200;2023-07-31T11:20:47;2.35;;;2.25;;
80270;SDS011;69573;45.560;10.200;2023-07-31T11:23:15;2.10;;;2.00;;
80270;SDS011;69573;45.560;10.200;2023-07-31T11:25:42;1.92;;;1.80;;
80270;SDS011;69573;45.560;10.200;2023-07-31T11:28:09;2.47;;;2.30;;
80270;SDS011;69573;45.560;10.200;2023-07-31T11:30:36;2.50;;;2.30;;
80270;SDS011;69573;45.560;10.200;2023-07-31T11:33:03;2.55;;;2.40;;
80270;SDS011;69573;45.560;10.200;2023-07-31T11:35:35;2.70;;;2.50;;
80270;SDS011;69573;45.560;10.200;2023-07-31T11:38:01;2.70;;;2.50;;
80270;SDS011;69573;45.560;10.200;2023-07-31T11:40:28;3.08;;;2.88;;
80270;SDS011;69573;45.560;10.200;2023-07-31T11:42:57;2.75;;;2.55;;
80270;SDS011;69573;45.560;10.200;2023-07-31T11:45:27;2.55;;;2.40;;
80270;SDS011;69573;45.560;10.200;2023-07-31T11:47:54;2.90;;;2.60;;
80270;SDS011;69573;45.560;10.200;2023-07-31T11:50:20;3.33;;;3.13;;
80270;SDS011;69573;45.560;10.200;2023-07-31T11:52:46;3.50;;;3.20;;
80270;SDS011;69573;45.560;10.200;2023-07-31T11:55:14;4.05;;;3.00;;
80270;SDS011;69573;45.560;10.200;2023-07-31T11:57:41;3.70;;;3.05;;
80270;SDS011;69573;45.560;10.200;2023-07-31T12:00:09;4.05;;;3.25;;
80270;SDS011;69573;45.560;10.200;2023-07-31T12:02:36;3.17;;;2.88;;
80270;SDS011;69573;45.560;10.200;2023-07-31T12:05:04;4.25;;;3.15;;
80270;SDS011;69573;45.560;10.200;2023-07-31T12:07:50;3.13;;;2.83;;
80270;SDS011;69573;45.560;10.200;2023-07-31T12:10:27;3.25;;;2.95;;
80270;SDS011;69573;45.560;10.200;2023-07-31T12:15:28;2.90;;;2.70;;
80270;SDS011;69573;45.560;10.200;2023-07-31T12:17:55;4.30;;;3.42;;
80270;SDS011;69573;45.560;10.200;2023-07-31T12:20:21;3.80;;;3.08;;
80270;SDS011;69573;45.560;10.200;2023-07-31T12:22:48;3.15;;;2.90;;
80270;SDS011;69573;45.560;10.200;2023-07-31T12:25:17;3.80;;;3.08;;
80270;SDS011;69573;45.560;10.200;2023-07-31T12:27:44;3.63;;;3.33;;
80270;SDS011;69573;45.560;10.200;2023-07-31T12:30:26;3.85;;;3.03;;
80270;SDS011;69573;45.560;10.200;2023-07-31T12:32:53;2.75;;;2.55;;
80270;SDS011;69573;45.560;10.200;2023-07-31T12:35:19;3.38;;;2.80;;
80270;SDS011;69573;45.560;10.200;2023-07-31T12:37:46;2.95;;;2.70;;
80270;SDS011;69573;45.560;10.200;2023-07-31T12:40:12;4.30;;;2.90;;
80270;SDS011;69573;45.560;10.200;2023-07-31T12:42:40;3.25;;;2.90;;
80270;SDS011;69573;45.560;10.200;2023-07-31T12:45:07;3.92;;;2.85;;
80270;SDS011;69573;45.560;10.200;2023-07-31T12:47:33;3.58;;;2.75;;
80270;SDS011;69573;45.560;10.200;2023-07-31T12:50:00;3.65;;;2.97;;
80270;SDS011;69573;45.560;10.200;2023-07-31T12:52:26;3.17;;;2.67;;
80270;SDS011;69573;45.560;10.200;2023-07-31T12:54:53;4.47;;;3.10;;
80270;SDS011;69573;45.560;10.200;2023-07-31T12:57:19;3.15;;;2.88;;
80270;SDS011;69573;45.560;10.200;2023-07-31T12:59:45;3.38;;;3.10;;
80270;SDS011;69573;45.560;10.200;2023-07-31T13:02:12;2.95;;;2.70;;
80270;SDS011;69573;45.560;10.200;2023-07-31T13:04:38;2.58;;;2.38;;
80270;SDS011;69573;45.560;10.200;2023-07-31T13:07:06;4.47;;;2.70;;
80270;SDS011;69573;45.560;10.200;2023-07-31T13:09:32;3.38;;;2.80;;
80270;SDS011;69573;45.560;10.200;2023-07-31T13:11:59;3.05;;;2.75;;
80270;SDS011;69573;45.560;10.200;2023-07-31T13:14:25;2.92;;;2.72;;
80270;SDS011;69573;45.560;10.200;2023-07-31T13:16:52;3.28;;;2.72;;
80270;SDS011;69573;45.560;10.200;2023-07-31T13:19:18;4.82;;;2.70;;
80270;SDS011;69573;45.560;10.200;2023-07-31T13:21:45;3.63;;;2.88;;
80270;SDS011;69573;45.560;10.200;2023-07-31T13:24:11;2.97;;;2.75;;
80270;SDS011;69573;45.560;10.200;2023-07-31T13:26:38;3.10;;;2.90;;
80270;SDS011;69573;45.560;10.200;2023-07-31T13:29:05;5.72;;;2.67;;
80270;SDS011;69573;45.560;10.200;2023-07-31T13:31:31;3.90;;;3.00;;
80270;SDS011;69573;45.560;10.200;2023-07-31T13:33:58;3.65;;;2.95;;
80270;SDS011;69573;45.560;10.200;2023-07-31T13:36:24;2.47;;;2.28;;
80270;SDS011;69573;45.560;10.200;2023-07-31T13:38:50;3.22;;;2.75;;
80270;SDS011;69573;45.560;10.200;2023-07-31T13:41:17;3.40;;;2.72;;
80270;SDS011;69573;45.560;10.200;2023-07-31T13:43:43;2.78;;;2.58;;
80270;SDS011;69573;45.560;10.200;2023-07-31T13:46:09;4.50;;;3.00;;
80270;SDS011;69573;45.560;10.200;2023-07-31T13:48:36;3.15;;;2.85;;
80270;SDS011;69573;45.560;10.200;2023-07-31T13:51:02;2.70;;;2.50;;
80270;SDS011;69573;45.560;10.200;2023-07-31T13:53:29;3.17;;;2.83;;
80270;SDS011;69573;45.560;10.200;2023-07-31T13:55:56;3.70;;;3.13;;
80270;SDS011;69573;45.560;10.200;2023-07-31T13:58:22;3.47;;;3.17;;
80270;SDS011;69573;45.560;10.200;2023-07-31T14:00:51;4.25;;;2.90;;
80270;SDS011;69573;45.560;10.200;2023-07-31T14:03:18;4.00;;;2.70;;
80270;SDS011;69573;45.560;10.200;2023-07-31T14:05:45;3.45;;;3.15;;
80270;SDS011;69573;45.560;10.200;2023-07-31T14:08:11;4.38;;;3.20;;
80270;SDS011;69573;45.560;10.200;2023-07-31T14:10:38;3.50;;;2.90;;
80270;SDS011;69573;45.560;10.200;2023-07-31T14:13:04;2.90;;;2.70;;
80270;SDS011;69573;45.560;10.200;2023-07-31T14:15:30;3.20;;;2.90;;
80270;SDS011;69573;45.560;10.200;2023-07-31T14:17:58;4.60;;;2.88;;
80270;SDS011;69573;45.560;10.200;2023-07-31T14:20:28;3.30;;;3.10;;
80270;SDS011;69573;45.560;10.200;2023-07-31T14:22:54;4.10;;;2.40;;
80270;SDS011;69573;45.560;10.200;2023-07-31T14:25:20;6.45;;;2.78;;
80270;SDS011;69573;45.560;10.200;2023-07-31T14:27:47;3.47;;;2.50;;
80270;SDS011;69573;45.560;10.200;2023-07-31T14:30:13;2.55;;;2.35;;
80270;SDS011;69573;45.560;10.200;2023-07-31T14:32:40;2.50;;;2.38;;
80270;SDS011;69573;45.560;10.200;2023-07-31T14:35:06;2.50;;;2.30;;
80270;SDS011;69573;45.560;10.200;2023-07-31T14:37:36;3.42;;;2.42;;
80270;SDS011;69573;45.560;10.200;2023-07-31T14:40:02;3.60;;;2.63;;
80270;SDS011;69573;45.560;10.200;2023-07-31T14:42:29;2.90;;;2.70;;
80270;SDS011;69573;45.560;10.200;2023-07-31T14:44:55;5.50;;;2.63;;
80270;SDS011;69573;45.560;10.200;2023-07-31T14:47:22;3.90;;;2.47;;
80270;SDS011;69573;45.560;10.200;2023-07-31T14:49:49;2.58;;;2.38;;
80270;SDS011;69573;45.560;10.200;2023-07-31T14:52:15;3.35;;;2.38;;
80270;SDS011;69573;45.560;10.200;2023-07-31T14:54:42;2.53;;;2.33;;
80270;SDS011;69573;45.560;10.200;2023-07-31T14:57:08;2.65;;;2.40;;